Time;durP1;ratioP1;P1;durP2;ratioP2;P2;SDS_P1;SDS_P2;PMS_P1;PMS_P2;Temp;Humidity;BMP_temperature;BMP_pressure;BME280_temperature;BME280_humidity;BME280_pressure;Samples;Min_cycle;Max_cycle;Signal;HPM_P1;HPM_P2
2022/07/10 00:01:54;;;;;;;2.40;2.08;;;;;;;17.24;67.51;96276.53;5081896;28;20106;-68
2022/07/10 00:04:20;;;;;;;4.13;2.13;;;;;;;17.23;68.19;96274.88;5088163;28;20020;-67
2022/07/10 00:06:46;;;;;;;2.47;2.20;;;;;;;17.23;67.75;96272.22;5078483;28;20394;-67
2022/07/10 00:09:13;;;;;;;3.95;2.40;;;;;;;17.17;68.83;96279.03;5083205;28;20016;-68
2022/07/10 00:11:39;;;;;;;2.25;2.05;;;;;;;17.07;68.23;96273.88;5084742;28;20419;-68
2022/07/10 00:14:04;;;;;;;2.10;1.95;;;;;;;17.02;68.94;96271.75;5081159;28;20031;-68
2022/07/10 00:16:29;;;;;;;3.13;2.20;;;;;;;16.93;69.43;96266.59;5075409;28;20468;-68
2022/07/10 00:18:55;;;;;;;1.92;1.80;;;;;;;16.88;69.74;96261.75;5082642;28;20052;-68
2022/07/10 00:21:20;;;;;;;2.05;1.88;;;;;;;16.87;69.70;96266.22;5085064;28;20029;-68
2022/07/10 00:23:46;;;;;;;1.90;1.75;;;;;;;16.84;69.96;96260.44;5085450;28;20028;-68
2022/07/10 00:26:11;;;;;;;2.03;1.90;;;;;;;16.79;69.84;96260.09;5083689;28;20034;-68
2022/07/10 00:28:36;;;;;;;1.95;1.80;;;;;;;16.78;69.55;96263.75;5084505;28;20032;-68
2022/07/10 00:31:02;;;;;;;2.13;2.03;;;;;;;16.75;72.19;96267.59;5081177;28;20059;-68
2022/07/10 00:33:27;;;;;;;2.30;2.10;;;;;;;16.68;69.68;96255.94;5075373;28;20032;-68
2022/07/10 00:35:53;;;;;;;2.03;1.75;;;;;;;16.68;69.41;96254.13;5082217;28;20016;-68
2022/07/10 00:38:19;;;;;;;2.22;1.83;;;;;;;16.66;68.96;96255.28;5080009;28;20043;-68
2022/07/10 00:40:45;;;;;;;2.30;1.98;;;;;;;16.59;68.99;96253.28;5083553;28;20025;-69
2022/07/10 00:43:10;;;;;;;2.33;2.13;;;;;;;16.50;69.39;96254.28;5078135;28;20027;-69
2022/07/10 00:45:35;;;;;;;2.28;1.80;;;;;;;16.49;68.71;96247.31;5081201;28;20410;-68
2022/07/10 00:48:01;;;;;;;4.63;1.73;;;;;;;16.42;69.94;96248.94;5077386;28;20046;-68
2022/07/10 00:50:27;;;;;;;2.55;2.13;;;;;;;16.40;69.44;96235.84;5083799;28;20020;-68
2022/07/10 00:52:54;;;;;;;1.73;1.63;;;;;;;16.39;69.44;96236.84;5089345;28;20107;-68
2022/07/10 00:55:19;;;;;;;1.90;1.70;;;;;;;16.33;69.85;96234.81;5085093;28;20028;-68
2022/07/10 00:57:45;;;;;;;1.83;1.73;;;;;;;16.28;70.70;96229.19;5084124;28;20032;-68
2022/07/10 01:00:11;;;;;;;2.47;2.28;;;;;;;16.26;69.95;96232.03;5078629;28;20035;-68
2022/07/10 01:02:41;;;;;;;2.45;2.08;;;;;;;16.24;69.75;96230.50;5079705;28;20174;-68
2022/07/10 01:05:06;;;;;;;3.17;2.42;;;;;;;16.20;70.46;96229.19;5078606;28;20391;-68
2022/07/10 01:07:32;;;;;;;2.42;2.33;;;;;;;16.14;71.14;96228.84;5080239;28;20039;-68
2022/07/10 01:09:59;;;;;;;2.80;2.13;;;;;;;16.08;71.22;96221.53;5094178;28;20020;-69
2022/07/10 01:12:25;;;;;;;2.28;2.08;;;;;;;16.12;70.53;96219.38;5080384;28;20051;-68
2022/07/10 01:14:51;;;;;;;4.15;2.20;;;;;;;16.15;70.46;96224.34;5082264;28;20447;-68
2022/07/10 01:17:17;;;;;;;2.17;1.95;;;;;;;16.18;70.36;96213.41;5065495;28;20077;-68
2022/07/10 01:19:42;;;;;;;2.30;1.85;;;;;;;16.14;70.69;96210.25;5086830;28;20095;-68
2022/07/10 01:22:08;;;;;;;1.98;1.88;;;;;;;16.09;71.00;96214.41;5079290;28;20392;-68
2022/07/10 01:24:34;;;;;;;4.25;2.00;;;;;;;16.10;70.76;96213.41;5079459;28;20024;-69
2022/07/10 01:26:59;;;;;;;2.38;2.17;;;;;;;16.06;70.67;96212.06;5079494;28;20029;-69
2022/07/10 01:29:25;;;;;;;3.67;2.00;;;;;;;16.05;72.04;96213.88;5078414;28;20035;-69
2022/07/10 01:31:51;;;;;;;2.00;1.90;;;;;;;16.01;72.23;96218.69;5093509;28;20027;-68
2022/07/10 01:34:16;;;;;;;1.88;1.77;;;;;;;15.96;72.49;96212.22;5083412;28;20031;-69
2022/07/10 01:36:42;;;;;;;1.98;1.88;;;;;;;15.93;72.17;96213.38;5080235;28;20032;-68
2022/07/10 01:39:07;;;;;;;1.90;1.77;;;;;;;15.96;71.16;96205.06;5080319;28;20667;-69
2022/07/10 01:41:33;;;;;;;2.90;2.13;;;;;;;15.99;71.97;96212.69;5081556;28;20107;-68
2022/07/10 01:43:59;;;;;;;1.90;1.80;;;;;;;16.03;71.48;96203.44;5084089;28;20107;-68
2022/07/10 01:46:25;;;;;;;2.97;2.00;;;;;;;16.01;71.53;96212.56;5081954;28;20466;-68
2022/07/10 01:48:51;;;;;;;5.53;2.10;;;;;;;16.04;71.05;96209.56;5080530;28;20107;-68
2022/07/10 01:51:16;;;;;;;2.17;2.08;;;;;;;16.03;71.28;96210.56;5076130;28;20054;-69
2022/07/10 01:53:42;;;;;;;4.00;2.08;;;;;;;15.98;71.89;96219.00;5080485;28;20116;-69
2022/07/10 01:56:10;;;;;;;1.95;1.85;;;;;;;15.93;72.18;96208.06;5079444;28;20047;-68
2022/07/10 01:58:36;;;;;;;1.83;1.73;;;;;;;15.92;71.88;96209.06;5080891;28;20044;-69
2022/07/10 02:01:03;;;;;;;2.00;1.90;;;;;;;15.85;73.07;96213.31;5081287;28;20030;-69
2022/07/10 02:06:13;;;;;;;2.50;1.90;;;;;;;15.86;72.63;96215.00;5085945;28;20510;-68
2022/07/10 02:08:38;;;;;;;2.20;2.00;;;;;;;15.88;72.42;96216.50;5081092;28;20025;-69
2022/07/10 02:11:04;;;;;;;2.67;2.08;;;;;;;15.85;73.07;96210.66;5095443;28;20024;-69
2022/07/10 02:13:29;;;;;;;2.00;1.85;;;;;;;15.75;73.38;96214.28;5086954;28;20068;-68
2022/07/10 02:15:54;;;;;;;3.45;2.08;;;;;;;15.70;72.62;96219.25;5084559;28;20074;-69
2022/07/10 02:18:20;;;;;;;2.15;1.95;;;;;;;15.72;72.17;96211.94;5082630;28;20024;-68
2022/07/10 02:20:46;;;;;;;1.83;1.73;;;;;;;15.66;72.36;96219.72;5078862;28;20577;-69
2022/07/10 02:23:11;;;;;;;1.77;1.67;;;;;;;15.60;73.19;96213.25;5072665;28;20024;-69
2022/07/10 02:25:37;;;;;;;2.25;2.00;;;;;;;15.55;73.17;96208.41;5088252;28;20053;-68
2022/07/10 02:28:02;;;;;;;3.53;1.70;;;;;;;15.50;73.59;96215.19;5093657;28;21801;-68
2022/07/10 02:30:28;;;;;;;2.10;1.90;;;;;;;15.43;74.15;96209.69;5090183;28;20027;-69
2022/07/10 02:32:53;;;;;;;9.40;2.00;;;;;;;15.41;74.51;96215.16;5086951;28;20038;-68
2022/07/10 02:35:19;;;;;;;1.70;1.60;;;;;;;15.40;74.04;96213.50;5090884;28;20448;-69
2022/07/10 02:37:44;;;;;;;3.08;2.05;;;;;;;15.45;73.17;96219.16;5076548;28;20402;-69
2022/07/10 02:40:09;;;;;;;2.13;1.90;;;;;;;15.39;73.29;96227.78;5079156;28;20816;-69
2022/07/10 02:42:35;;;;;;;3.90;1.88;;;;;;;15.33;74.07;96218.63;5086280;28;20047;-68
2022/07/10 02:45:00;;;;;;;2.92;2.08;;;;;;;15.22;75.20;96212.75;5090378;28;20081;-69
2022/07/10 02:47:26;;;;;;;2.10;2.00;;;;;;;15.25;75.23;96218.59;5082900;28;20077;-68
2022/07/10 02:49:51;;;;;;;2.20;2.00;;;;;;;15.23;75.23;96211.75;5081461;28;20021;-68
2022/07/10 02:52:16;;;;;;;2.08;1.98;;;;;;;15.16;75.66;96219.53;5093148;28;20070;-68
2022/07/10 02:54:42;;;;;;;1.95;1.85;;;;;;;15.15;73.99;96223.16;5084823;28;20070;-68
2022/07/10 02:57:07;;;;;;;3.80;1.80;;;;;;;15.14;74.06;96225.00;5088373;28;20539;-67
2022/07/10 02:59:33;;;;;;;2.17;1.88;;;;;;;15.19;74.24;96224.50;5091838;28;20024;-68
2022/07/10 03:01:58;;;;;;;1.83;1.73;;;;;;;15.25;74.26;96220.41;5079866;28;20028;-68
2022/07/10 03:04:23;;;;;;;5.45;2.15;;;;;;;15.24;73.85;96229.34;5091871;28;20418;-68
2022/07/10 03:06:49;;;;;;;2.13;1.90;;;;;;;15.22;73.16;96224.19;5085654;28;20029;-68
2022/07/10 03:09:14;;;;;;;2.13;1.92;;;;;;;15.17;73.82;96222.03;5093969;28;20055;-68
2022/07/10 03:11:39;;;;;;;2.22;2.13;;;;;;;15.12;74.42;96223.47;5092245;28;20020;-68
2022/07/10 03:14:05;;;;;;;2.42;2.22;;;;;;;15.09;74.82;96219.31;5084190;28;20483;-68
2022/07/10 03:16:31;;;;;;;1.95;1.85;;;;;;;15.10;75.08;96220.16;5089088;28;20048;-68
2022/07/10 03:18:57;;;;;;;2.17;2.03;;;;;;;15.09;75.53;96219.31;5069131;28;20025;-68
2022/07/10 03:21:22;;;;;;;2.30;2.05;;;;;;;15.10;75.18;96215.66;5094021;28;20110;-68
2022/07/10 03:23:47;;;;;;;2.28;2.08;;;;;;;15.13;74.85;96217.19;5092518;28;20384;-68
2022/07/10 03:26:13;;;;;;;1.90;1.80;;;;;;;15.10;74.92;96210.38;5087342;28;20025;-69
2022/07/10 03:28:38;;;;;;;2.08;1.98;;;;;;;15.09;75.33;96211.34;5087026;28;20103;-68
2022/07/10 03:31:03;;;;;;;2.08;1.90;;;;;;;15.05;75.97;96204.72;5091360;28;20020;-68
2022/07/10 03:33:29;;;;;;;2.65;2.20;;;;;;;15.05;76.03;96217.97;5086661;28;20060;-68
2022/07/10 03:35:54;;;;;;;4.38;1.90;;;;;;;15.00;76.05;96213.13;5088129;28;20024;-68
2022/07/10 03:38:20;;;;;;;6.15;2.10;;;;;;;14.98;75.84;96212.47;5089958;28;20467;-68
2022/07/10 03:40:47;;;;;;;3.83;2.20;;;;;;;15.00;75.65;96221.06;5087209;28;20028;-67
2022/07/10 03:43:13;;;;;;;1.80;1.70;;;;;;;14.92;76.16;96214.91;5075306;28;20023;-69
2022/07/10 03:45:39;;;;;;;1.98;1.73;;;;;;;14.82;76.22;96218.50;5077581;28;20063;-68
2022/07/10 03:48:04;;;;;;;6.30;2.20;;;;;;;14.86;75.96;96211.06;5081621;28;20146;-68
2022/07/10 03:50:30;;;;;;;2.17;2.08;;;;;;;14.88;75.85;96217.88;5082338;28;20027;-68
2022/07/10 03:52:55;;;;;;;2.53;1.73;;;;;;;14.86;75.89;96208.41;5086130;28;20035;-70
2022/07/10 03:55:20;;;;;;;2.10;2.00;;;;;;;14.89;75.94;96216.88;5080307;28;20090;-69
2022/07/10 03:58:02;;;;;;;3.03;2.00;;;;;;;14.89;75.48;96211.56;5092129;28;20127;-69
2022/07/10 04:00:28;;;;;;;2.20;2.10;;;;;;;14.87;75.24;96216.19;5090561;28;20539;-69
2022/07/10 04:02:58;;;;;;;3.55;2.00;;;;;;;14.81;75.65;96216.84;5083848;28;20043;-69
2022/07/10 04:05:24;;;;;;;2.90;2.63;;;;;;;14.75;77.70;96220.94;5080107;28;20024;-69
2022/07/10 04:07:50;;;;;;;1.88;1.75;;;;;;;14.66;77.03;96221.00;5086890;28;20028;-69
2022/07/10 04:10:15;;;;;;;4.90;2.13;;;;;;;14.65;76.78;96224.63;5082511;28;20035;-69
2022/07/10 04:12:41;;;;;;;5.95;2.17;;;;;;;14.72;75.95;96221.25;5087521;28;20034;-69
2022/07/10 04:15:07;;;;;;;3.80;2.25;;;;;;;14.70;76.31;96225.84;5085061;28;20024;-69
2022/07/10 04:17:32;;;;;;;2.45;1.85;;;;;;;14.68;76.17;96219.88;5075515;28;20028;-69
2022/07/10 04:19:59;;;;;;;3.85;2.30;;;;;;;14.70;76.08;96219.69;5080926;28;20441;-69
2022/07/10 04:22:25;;;;;;;5.25;2.10;;;;;;;14.70;76.14;96219.69;5077294;28;20029;-69
2022/07/10 04:24:51;;;;;;;4.32;1.98;;;;;;;14.69;76.30;96223.31;5077315;28;20062;-69
2022/07/10 04:27:16;;;;;;;2.15;2.00;;;;;;;14.72;75.89;96218.59;5079041;28;20402;-68
2022/07/10 04:29:42;;;;;;;2.38;2.17;;;;;;;14.70;77.14;96214.38;5081109;28;20024;-69
2022/07/10 04:32:08;;;;;;;2.17;1.83;;;;;;;14.66;76.61;96218.34;5096965;28;20435;-69
2022/07/10 04:34:33;;;;;;;1.80;1.75;;;;;;;14.66;76.58;96210.38;5082827;28;20027;-69
2022/07/10 04:36:59;;;;;;;2.28;1.98;;;;;;;14.63;77.29;96216.00;5089465;28;20024;-68
2022/07/10 04:39:25;;;;;;;2.10;2.00;;;;;;;14.67;76.77;96222.66;5091852;28;20020;-68
2022/07/10 04:41:50;;;;;;;2.08;1.88;;;;;;;14.68;77.32;96219.88;5080103;28;20395;-69
2022/07/10 04:44:15;;;;;;;2.05;1.95;;;;;;;14.64;77.93;96215.00;5082256;28;20023;-69
2022/07/10 04:46:41;;;;;;;2.22;2.13;;;;;;;14.65;76.92;96211.38;5083868;28;20544;-69
2022/07/10 04:49:06;;;;;;;2.40;2.20;;;;;;;14.64;77.19;96215.00;5078838;28;20016;-69
2022/07/10 04:51:32;;;;;;;3.45;1.90;;;;;;;14.65;77.16;96214.03;5079649;28;20024;-68
2022/07/10 04:53:57;;;;;;;3.92;2.08;;;;;;;14.65;77.12;96209.56;5080608;28;20024;-68
2022/07/10 04:56:22;;;;;;;4.25;2.10;;;;;;;14.64;77.38;96210.56;5080036;28;20111;-68
2022/07/10 04:58:48;;;;;;;2.90;2.10;;;;;;;14.65;77.27;96211.38;5079889;28;20127;-68
2022/07/10 05:01:13;;;;;;;2.75;1.90;;;;;;;14.61;76.61;96209.03;5082741;28;20532;-69
2022/07/10 05:03:39;;;;;;;4.07;2.05;;;;;;;14.68;76.82;96208.41;5088038;28;20035;-69
2022/07/10 05:06:04;;;;;;;3.20;2.08;;;;;;;14.72;76.59;96205.34;5086167;28;20051;-69
2022/07/10 05:08:30;;;;;;;1.80;1.70;;;;;;;14.78;76.41;96206.53;5086433;28;20086;-68
2022/07/10 05:10:55;;;;;;;3.17;2.40;;;;;;;14.72;77.27;96204.53;5082579;28;20022;-69
2022/07/10 05:13:20;;;;;;;3.15;2.10;;;;;;;14.69;77.30;96204.78;5083884;28;20038;-69
2022/07/10 05:15:49;;;;;;;5.72;2.70;;;;;;;14.78;77.45;96201.25;5085486;28;20483;-69
2022/07/10 05:18:15;;;;;;;2.25;2.05;;;;;;;14.87;77.69;96202.13;5080487;28;20373;-68
2022/07/10 05:20:43;;;;;;;6.38;2.10;;;;;;;15.09;77.07;96199.94;5074505;28;20035;-69
2022/07/10 05:23:09;;;;;;;2.72;2.10;;;;;;;15.23;76.41;96204.63;5087560;28;20020;-69
2022/07/10 05:25:37;;;;;;;4.22;2.10;;;;;;;15.41;75.15;96201.91;5080351;28;20028;-69
2022/07/10 05:28:03;;;;;;;3.65;2.08;;;;;;;15.51;75.42;96196.47;5083862;28;20548;-69
2022/07/10 05:30:28;;;;;;;8.30;2.60;;;;;;;15.64;74.40;96198.66;5097702;28;20073;-69
2022/07/10 05:32:53;;;;;;;4.53;2.28;;;;;;;15.68;75.14;96196.50;5091359;28;20028;-69
2022/07/10 05:35:19;;;;;;;2.80;2.60;;;;;;;15.72;74.58;96196.03;5082519;28;20031;-69
2022/07/10 05:37:44;;;;;;;2.20;2.10;;;;;;;15.75;74.28;96190.38;5093616;28;20107;-69
2022/07/10 05:40:10;;;;;;;1.90;1.80;;;;;;;15.84;74.37;96185.13;5094266;28;20098;-68
2022/07/10 05:42:35;;;;;;;2.85;1.90;;;;;;;15.94;74.05;96191.13;5082630;28;20016;-69
2022/07/10 05:45:01;;;;;;;2.00;1.90;;;;;;;16.11;73.49;96191.97;5077293;28;20024;-69
2022/07/10 05:47:27;;;;;;;1.95;1.80;;;;;;;16.21;73.52;96181.19;5080912;28;20490;-69
2022/07/10 05:49:52;;;;;;;2.08;1.98;;;;;;;16.41;71.95;96192.34;5076489;28;20019;-69
2022/07/10 05:52:17;;;;;;;2.00;1.90;;;;;;;16.55;70.87;96193.50;5082690;28;20404;-68
2022/07/10 05:54:43;;;;;;;1.70;1.60;;;;;;;16.72;69.07;96188.97;5091301;28;20020;-69
2022/07/10 05:57:08;;;;;;;1.90;1.80;;;;;;;16.87;69.77;96197.09;5079803;28;20509;-68
2022/07/10 05:59:34;;;;;;;1.85;1.75;;;;;;;17.00;69.21;96196.59;5076267;28;20395;-69
2022/07/10 06:02:01;;;;;;;2.65;1.90;;;;;;;17.11;68.30;96187.41;5080442;28;20036;-69
2022/07/10 06:04:26;;;;;;;3.03;1.60;;;;;;;17.20;66.96;96190.06;5081413;28;20024;-68
2022/07/10 06:06:52;;;;;;;2.17;1.50;;;;;;;17.32;65.91;96183.38;5072847;28;20024;-69
2022/07/10 06:09:18;;;;;;;1.70;1.60;;;;;;;17.43;65.42;96185.66;5093066;28;20024;-69
2022/07/10 06:11:45;;;;;;;2.42;2.00;;;;;;;17.53;64.83;96185.44;5091366;28;20147;-69
2022/07/10 06:14:11;;;;;;;2.55;1.80;;;;;;;17.68;65.10;96185.53;5076644;28;20025;-68
2022/07/10 06:16:36;;;;;;;1.58;1.45;;;;;;;17.87;64.19;96188.78;5081671;28;20031;-69
2022/07/10 06:19:01;;;;;;;1.70;1.60;;;;;;;18.03;62.49;96186.03;5073127;28;20079;-69
2022/07/10 06:21:27;;;;;;;1.75;1.65;;;;;;;18.26;62.69;96185.22;5075583;28;20035;-68
2022/07/10 06:23:52;;;;;;;2.08;1.60;;;;;;;18.47;61.65;96176.53;5089450;28;20109;-69
2022/07/10 06:26:18;;;;;;;1.60;1.50;;;;;;;18.66;60.99;96177.03;5089708;28;20032;-69
2022/07/10 06:28:43;;;;;;;1.55;1.45;;;;;;;18.91;58.91;96179.47;5089629;28;20400;-69
2022/07/10 06:31:08;;;;;;;3.25;1.60;;;;;;;19.15;57.68;96178.41;5089656;28;20145;-69
2022/07/10 06:33:35;;;;;;;3.15;1.63;;;;;;;19.27;57.81;96178.78;5089050;28;20039;-68
2022/07/10 06:36:01;;;;;;;1.50;1.50;;;;;;;19.57;57.78;96185.94;5089572;28;20020;-69
2022/07/10 06:38:26;;;;;;;1.40;1.30;;;;;;;19.96;56.34;96178.59;5089008;28;20073;-68
2022/07/10 06:40:52;;;;;;;1.58;1.45;;;;;;;20.36;54.88;96183.50;5088906;28;20455;-69
2022/07/10 06:43:17;;;;;;;1.50;1.40;;;;;;;20.74;53.16;96181.34;5070268;28;20073;-68
2022/07/10 06:45:44;;;;;;;1.63;1.48;;;;;;;21.12;50.63;96184.72;5093068;28;20578;-69
2022/07/10 06:48:10;;;;;;;1.40;1.40;;;;;;;21.41;49.31;96180.97;5104798;28;20026;-69
2022/07/10 06:50:35;;;;;;;1.38;1.27;;;;;;;21.70;49.40;96179.06;5100499;28;20028;-69
2022/07/10 06:53:05;;;;;;;1.83;1.40;;;;;;;21.81;48.30;96177.66;5088403;28;20040;-69
2022/07/10 06:55:31;;;;;;;1.40;1.30;;;;;;;22.21;48.44;96173.41;5070268;28;20473;-68
2022/07/10 06:57:58;;;;;;;2.28;1.10;;;;;;;22.57;47.28;96170.38;5089816;28;20526;-68
2022/07/10 07:00:23;;;;;;;1.35;1.35;;;;;;;22.85;46.68;96169.31;5091973;28;20077;-68
2022/07/10 07:02:49;;;;;;;1.50;1.30;;;;;;;23.13;46.03;96168.28;5092412;28;20024;-68
2022/07/10 07:05:14;;;;;;;1.50;1.40;;;;;;;23.34;45.63;96157.50;5092398;28;20028;-68
2022/07/10 07:07:40;;;;;;;1.13;1.13;;;;;;;23.56;44.82;96160.72;5091638;28;20028;-68
2022/07/10 07:10:07;;;;;;;2.40;1.48;;;;;;;23.87;42.83;96164.50;5092166;28;20058;-68
2022/07/10 07:12:33;;;;;;;1.00;1.00;;;;;;;24.17;42.28;96164.78;5092087;28;20043;-68
2022/07/10 07:14:58;;;;;;;5.10;1.60;;;;;;;24.31;42.35;96161.97;5092964;28;20140;-68
2022/07/10 07:17:33;;;;;;;1.60;1.50;;;;;;;24.39;42.50;96168.97;5092221;28;20024;-68
2022/07/10 07:25:26;;;;;;;2.03;1.25;;;;;;;25.01;41.07;96173.66;5091349;28;20046;-67
2022/07/10 07:27:51;;;;;;;1.55;1.45;;;;;;;25.40;40.27;96165.38;5091484;28;20020;-68
2022/07/10 07:30:17;;;;;;;2.40;1.60;;;;;;;25.57;40.64;96166.44;5091107;28;20035;-71
2022/07/10 07:32:44;;;;;;;1.25;1.15;;;;;;;25.95;39.75;96161.81;5091403;28;20043;-62
2022/07/10 07:35:11;;;;;;;1.73;1.23;;;;;;;25.86;37.25;96163.19;5070810;28;20508;-60
2022/07/10 07:37:40;;;;;;;1.33;1.10;;;;;;;26.01;37.20;96162.78;5088996;28;20060;-63
2022/07/10 07:40:08;;;;;;;1.20;1.20;;;;;;;26.59;37.21;96165.91;5090982;28;20501;-63
2022/07/10 07:42:34;;;;;;;1.45;1.33;;;;;;;26.65;37.21;96150.66;5091808;28;20130;-63
2022/07/10 07:44:59;;;;;;;3.30;1.50;;;;;;;26.93;36.37;96143.78;5093505;28;20077;-63
2022/07/10 07:47:25;;;;;;;1.60;1.50;;;;;;;27.04;36.42;96142.94;5087519;28;20035;-62
2022/07/10 07:49:51;;;;;;;6.05;1.50;;;;;;;26.78;37.43;96149.63;5090538;28;20803;-63
2022/07/10 07:52:16;;;;;;;2.10;1.50;;;;;;;27.17;36.71;96153.50;5092306;28;20051;-64
2022/07/10 07:54:41;;;;;;;1.25;1.15;;;;;;;27.41;36.35;96156.16;5086142;28;20021;-62
2022/07/10 07:57:07;;;;;;;2.00;1.30;;;;;;;27.60;35.44;96145.22;5086268;28;20035;-62
2022/07/10 07:59:33;;;;;;;1.40;1.30;;;;;;;27.88;34.81;96141.72;5087469;28;20115;-61
2022/07/10 08:01:58;;;;;;;1.20;1.10;;;;;;;28.12;34.41;96149.72;5085599;28;20096;-60
2022/07/10 08:04:24;;;;;;;1.58;1.48;;;;;;;28.64;33.45;96149.81;5089075;28;20023;-60
2022/07/10 08:06:51;;;;;;;2.47;1.38;;;;;;;27.84;33.40;96143.25;5081389;28;20032;-60
2022/07/10 08:09:18;;;;;;;3.00;1.63;;;;;;;27.73;34.20;96142.22;5091098;28;20052;-59
2022/07/10 08:11:43;;;;;;;8.15;1.80;;;;;;;27.58;33.91;96140.03;5085357;28;20028;-60
2022/07/10 08:14:08;;;;;;;1.88;1.30;;;;;;;28.23;33.13;96128.28;5090988;28;20104;-60
2022/07/10 08:16:34;;;;;;;1.50;1.38;;;;;;;28.63;33.59;96129.19;5084885;28;20035;-60
2022/07/10 08:18:59;;;;;;;10.90;2.10;;;;;;;28.21;32.56;96131.25;5077438;28;20483;-60
2022/07/10 08:21:25;;;;;;;2.97;1.58;;;;;;;28.17;33.84;96125.50;5086524;28;20028;-60
2022/07/10 08:23:51;;;;;;;1.55;1.30;;;;;;;28.39;33.19;96124.78;5087733;28;20032;-60
2022/07/10 08:26:16;;;;;;;2.63;1.30;;;;;;;28.22;33.72;96113.94;5089689;28;20059;-59
2022/07/10 08:28:42;;;;;;;1.38;1.27;;;;;;;28.85;32.45;96118.47;5085656;28;20052;-59
2022/07/10 08:31:07;;;;;;;1.55;1.40;;;;;;;28.70;32.15;96108.19;5086693;28;20027;-60
2022/07/10 08:33:32;;;;;;;1.60;1.50;;;;;;;28.64;33.23;96117.31;5086192;28;20035;-59
2022/07/10 08:36:00;;;;;;;1.38;1.25;;;;;;;29.02;31.94;96119.25;5088383;28;20035;-60
2022/07/10 08:38:25;;;;;;;1.33;1.15;;;;;;;28.99;32.09;96108.91;5085125;28;20027;-60
2022/07/10 08:40:56;;;;;;;4.10;1.83;;;;;;;29.24;32.75;96110.34;5083416;28;20033;-60
2022/07/10 08:43:22;;;;;;;1.30;1.20;;;;;;;29.56;30.68;96098.81;5082575;28;20402;-61
2022/07/10 08:45:50;;;;;;;1.20;1.20;;;;;;;29.53;30.71;96106.66;5082689;28;20107;-60
2022/07/10 08:48:21;;;;;;;3.38;1.23;;;;;;;29.44;30.49;96098.13;5087694;28;20024;-60
2022/07/10 08:50:47;;;;;;;1.60;1.27;;;;;;;29.02;32.38;96102.16;5089850;28;20035;-60
2022/07/10 08:53:19;;;;;;;1.33;1.20;;;;;;;29.19;31.37;96106.72;5087087;28;20039;-60
2022/07/10 08:55:44;;;;;;;2.30;1.23;;;;;;;29.76;30.50;96099.31;5084085;28;20394;-60
2022/07/10 08:58:12;;;;;;;1.58;1.20;;;;;;;30.16;29.95;96104.34;5082023;28;20048;-60
2022/07/10 09:00:37;;;;;;;1.00;1.00;;;;;;;29.85;28.88;96100.47;5091807;28;20099;-60
2022/07/10 09:03:03;;;;;;;1.95;1.30;;;;;;;29.76;30.43;96104.72;5088279;28;20115;-60
2022/07/10 09:05:29;;;;;;;2.35;1.30;;;;;;;29.88;30.49;96099.97;5091030;28;20090;-60
2022/07/10 09:07:55;;;;;;;1.60;1.50;;;;;;;29.78;30.99;96095.25;5087150;28;20029;-60
2022/07/10 09:10:24;;;;;;;1.00;1.00;;;;;;;30.16;29.70;96092.66;5088241;28;20402;-60
2022/07/10 09:12:54;;;;;;;1.27;1.17;;;;;;;30.20;30.30;96084.81;5089814;28;20148;-60
2022/07/10 09:15:24;;;;;;;1.73;1.40;;;;;;;30.09;29.93;96089.34;5088482;28;20066;-60
2022/07/10 09:17:52;;;;;;;1.48;1.38;;;;;;;30.15;30.91;96088.28;5090224;28;20032;-61
2022/07/10 09:20:29;;;;;;;1.73;1.10;;;;;;;30.61;28.78;96081.59;5086070;28;20078;-62
2022/07/10 09:22:56;;;;;;;2.92;1.10;;;;;;;30.62;28.74;96089.53;5087960;28;20031;-60
2022/07/10 09:25:21;;;;;;;2.67;1.30;;;;;;;30.50;28.58;96076.09;5089183;28;20027;-60
2022/07/10 09:27:54;;;;;;;1.10;1.10;;;;;;;30.18;29.57;96082.38;5089081;28;20020;-60
2022/07/10 09:30:39;;;;;;;1.50;1.40;;;;;;;30.32;29.68;96081.94;5088006;28;20023;-60
2022/07/10 09:33:19;;;;;;;3.35;1.20;;;;;;;30.20;30.30;96080.22;5089171;28;20024;-61
2022/07/10 09:36:07;;;;;;;1.45;1.35;;;;;;;30.08;30.57;96072.25;5059656;28;20407;-60
2022/07/10 09:38:53;;;;;;;1.40;1.30;;;;;;;30.86;29.07;96070.13;5087280;28;20483;-60
2022/07/10 09:41:21;;;;;;;3.13;1.40;;;;;;;30.93;28.56;96067.97;5089490;28;20020;-61
2022/07/10 09:43:47;;;;;;;2.42;1.33;;;;;;;30.95;28.94;96067.72;5091691;28;20036;-61
2022/07/10 09:46:13;;;;;;;1.55;1.33;;;;;;;31.00;28.99;96067.75;5091220;28;20031;-61
2022/07/10 09:48:38;;;;;;;1.00;1.00;;;;;;;31.29;28.32;96067.38;5089347;28;20406;-61
2022/07/10 09:51:09;;;;;;;2.58;1.20;;;;;;;31.53;27.29;96070.44;5089001;28;20161;-61
2022/07/10 09:53:39;;;;;;;1.02;1.02;;;;;;;31.69;27.47;96063.13;5087329;28;20554;-60
2022/07/10 09:56:07;;;;;;;1.10;1.10;;;;;;;31.94;25.95;96064.28;5087627;28;20033;-61
2022/07/10 09:58:35;;;;;;;1.55;1.45;;;;;;;31.83;27.34;96059.94;5091520;28;20048;-61
2022/07/10 10:01:03;;;;;;;1.05;0.95;;;;;;;31.74;26.21;96062.31;5087956;28;20027;-61
2022/07/10 10:03:36;;;;;;;2.70;1.10;;;;;;;31.98;27.02;96061.84;5081069;28;20024;-61
2022/07/10 10:06:14;;;;;;;1.27;1.23;;;;;;;31.96;27.29;96055.88;5089494;28;20394;-60
2022/07/10 10:08:56;;;;;;;1.35;1.20;;;;;;;31.77;26.85;96041.97;5086621;28;20019;-60
2022/07/10 10:11:25;;;;;;;3.90;1.25;;;;;;;32.34;25.79;96050.19;5089827;28;20102;-60
2022/07/10 10:13:51;;;;;;;2.72;1.45;;;;;;;31.87;26.81;96041.97;5085573;28;20110;-60
2022/07/10 10:16:19;;;;;;;1.38;1.27;;;;;;;32.14;27.61;96041.72;5092380;28;20070;-60
2022/07/10 10:21:29;;;;;;;2.22;1.13;;;;;;;32.50;26.13;96034.66;5084219;28;20035;-60
2022/07/10 10:23:56;;;;;;;4.05;1.10;;;;;;;32.21;27.21;96036.00;5091594;28;20027;-60
2022/07/10 10:26:22;;;;;;;3.25;1.20;;;;;;;32.44;27.27;96031.13;5086109;28;20394;-60
2022/07/10 10:28:50;;;;;;;1.38;1.20;;;;;;;32.99;25.48;96033.19;5086571;28;20016;-60
2022/07/10 10:31:18;;;;;;;1.38;1.10;;;;;;;32.80;25.69;96024.78;5089926;28;20044;-60
2022/07/10 10:33:45;;;;;;;3.20;1.38;;;;;;;32.57;26.62;96033.25;5091864;28;20032;-60
2022/07/10 10:36:13;;;;;;;4.45;1.27;;;;;;;32.93;26.56;96029.66;5088214;28;20020;-60
2022/07/10 10:38:44;;;;;;;2.72;1.10;;;;;;;32.84;26.36;96021.22;5095381;28;20437;-60
2022/07/10 10:41:26;;;;;;;1.50;1.40;;;;;;;32.84;26.86;96023.94;5094326;28;20062;-60
2022/07/10 10:44:06;;;;;;;2.97;1.45;;;;;;;32.96;26.28;96022.84;5087661;28;20662;-60
2022/07/10 10:46:32;;;;;;;2.10;1.88;;;;;;;33.27;25.53;96023.53;5089570;28;20407;-59
2022/07/10 10:49:06;;;;;;;1.70;1.60;;;;;;;33.21;25.82;96021.94;5095036;28;20034;-60
2022/07/10 10:51:50;;;;;;;;;;;;;;;33.25;26.21;96024.91;5094853;28;20459;-60
2022/07/10 10:54:15;;;;;;;1.67;1.38;;;;;;;33.34;25.18;96014.22;5087142;28;20395;-60
2022/07/10 10:56:41;;;;;;;2.40;1.60;;;;;;;33.15;25.73;96015.69;5090390;28;20020;-60
2022/07/10 10:59:07;;;;;;;2.58;1.70;;;;;;;33.40;25.56;96015.84;5084657;28;20059;-60
2022/07/10 11:01:32;;;;;;;1.27;1.27;;;;;;;33.50;24.75;96015.00;5091689;28;20527;-60
2022/07/10 11:04:04;;;;;;;1.40;1.10;;;;;;;33.38;24.85;96012.56;5097810;28;20087;-60
2022/07/10 11:06:43;;;;;;;1.15;1.05;;;;;;;33.09;26.30;96011.34;5091796;28;20043;-60
2022/07/10 11:09:35;;;;;;;4.32;1.50;;;;;;;33.03;25.88;96011.66;5096054;28;20028;-60
2022/07/10 11:12:08;;;;;;;1.00;1.00;;;;;;;32.91;25.36;96012.75;5085321;28;20089;-60
2022/07/10 11:14:39;;;;;;;3.03;1.50;;;;;;;33.21;25.43;96002.84;5090161;28;20088;-60
2022/07/10 11:17:06;;;;;;;1.75;1.65;;;;;;;32.67;26.49;96001.66;5093629;28;20086;-60
2022/07/10 11:19:33;;;;;;;1.10;1.10;;;;;;;32.67;26.08;95993.47;5089768;28;20020;-60
2022/07/10 11:22:06;;;;;;;4.00;1.40;;;;;;;33.13;25.83;95997.94;5091747;28;20383;-60
2022/07/10 11:24:48;;;;;;;5.03;1.42;;;;;;;33.21;25.68;95993.84;5084642;28;20113;-60
2022/07/10 11:27:36;;;;;;;2.03;1.05;;;;;;;33.34;25.88;95990.50;5087770;28;20016;-60
2022/07/10 11:30:02;;;;;;;2.40;1.30;;;;;;;33.67;25.20;96004.50;5091680;28;20020;-60
2022/07/10 11:32:28;;;;;;;1.92;1.20;;;;;;;32.94;25.20;95992.31;5089762;28;20031;-60
2022/07/10 11:34:55;;;;;;;3.65;1.38;;;;;;;33.35;24.78;95983.94;5093141;28;20028;-60
2022/07/10 11:37:20;;;;;;;2.47;1.60;;;;;;;33.53;25.76;95977.03;5092977;28;20027;-60
2022/07/10 11:39:46;;;;;;;5.38;1.48;;;;;;;33.77;24.50;95984.50;5092353;28;20023;-60
2022/07/10 11:42:11;;;;;;;3.00;2.28;;;;;;;33.60;25.29;95984.91;5087223;28;20103;-60
2022/07/10 11:44:37;;;;;;;9.18;2.67;;;;;;;33.76;24.45;95985.63;5092475;28;20112;-61